Latest Weather Observations for King Island Airport

IDT60801

Issued at 5:05 am EST Sunday 20 April 2014 (issued every 30 minutes, with the page automatically refreshed every 10 minutes)

About weather observations | Map of weather stations | Latest weather observations for TAS | Other Formats
Station Details ID: 098017 Name: KING ISLAND AIRPORT Lat: -39.88 Lon: 143.88 Height: 37.0 m
Data from the previous 72 hours. | See also: Recent months at King Island Airport
Date/Time
EST
Temp
°C
App
Temp
°C
Dew
Point
Rel
Hum
%
Delta-T
°C
Wind Press
QNH
hPa
Press
MSL
hPa
Rain
since 9 am
mm
Dir
 
Spd
km/h
Gust
km/h
Spd
kts
Gust
kts
20/05:00am 12.9 6.7 9.2 78 1.9 NW 32 39 17 21 1014.2 - 1.4
20/04:30am 12.6 8.0 8.3 75 2.1 WNW 22 28 12 15 1014.2 - 1.4
20/04:00am 12.0 6.9 7.7 75 2.1 NW 24 30 13 16 1014.3 - 1.4
20/03:30am 11.9 6.5 7.8 76 2.0 WNW 26 32 14 17 1014.5 - 1.4
20/03:00am 12.6 6.9 9.8 83 1.4 WNW 30 39 16 21 1014.5 1014.5 1.4
20/02:57am 12.7 7.4 9.9 83 1.4 WNW 28 39 15 21 1014.5 - 1.4
20/02:30am 11.8 8.1 7.9 77 1.9 WNW 17 20 9 11 1014.7 - 1.4
20/02:00am 12.0 8.0 8.1 77 1.9 WNW 19 26 10 14 1015.1 - 1.4
20/01:30am 11.6 8.0 8.5 81 1.5 WNW 17 22 9 12 1015.3 - 1.4
20/01:00am 11.2 6.3 8.4 83 1.4 WNW 24 35 13 19 1015.5 - 1.4
20/12:40am 11.0 4.7 9.1 88 0.9 WNW 32 50 17 27 1015.8 - 1.4
20/12:38am 11.2 5.0 9.5 89 0.9 W 32 39 17 21 1015.8 - 1.4
20/12:30am 11.2 9.9 9.9 92 0.7 W 7 11 4 6 1015.8 - 1.4
20/12:00am 11.4 7.9 10.3 93 0.6 W 19 26 10 14 1016.2 1016.3 1.4
 
Date/Time
EST
Temp
°C
App
Temp
°C
Dew
Point
Rel
Hum
%
Delta-T
°C
Wind Press
QNH
hPa
Press
MSL
hPa
Rain
since 9 am
mm
Dir
 
Spd
km/h
Gust
km/h
Spd
kts
Gust
kts
19/11:30pm 12.3 9.4 9.5 83 1.4 WSW 15 19 8 10 1016.3 - 1.0
19/11:00pm 11.8 8.3 7.1 73 2.3 WNW 15 20 8 11 1016.4 - 1.0
19/10:30pm 11.8 8.8 7.7 76 2.0 WNW 13 17 7 9 1016.8 - 1.0
19/10:00pm 11.2 8.8 7.1 76 2.0 W 9 11 5 6 1017.1 - 1.0
19/09:30pm 12.0 8.2 7.5 74 2.2 NW 17 20 9 11 1017.4 - 1.0
19/09:00pm 12.4 10.5 7.7 73 2.3 NW 7 20 4 11 1017.5 1017.5 1.0
19/08:30pm 11.9 9.2 7.2 73 2.3 NW 11 13 6 7 1017.6 - 1.0
19/08:00pm 12.4 7.7 7.7 73 2.3 NW 22 32 12 17 1017.8 - 1.0
19/07:30pm 12.4 10.3 6.5 67 2.8 W 7 13 4 7 1017.7 - 1.0
19/07:00pm 12.5 9.5 5.9 64 3.1 WSW 11 13 6 7 1017.8 - 1.0
19/06:30pm 12.5 8.8 6.5 67 2.9 WSW 15 19 8 10 1017.8 - 1.0
19/06:00pm 12.3 9.0 6.4 67 2.8 WSW 13 17 7 9 1017.7 1017.7 1.0
19/05:30pm 12.8 8.1 5.9 63 3.3 WSW 20 28 11 15 1017.6 - 1.0
19/05:00pm 13.2 9.3 7.0 66 3.0 WSW 17 22 9 12 1017.7 - 1.0
19/04:30pm 13.3 9.4 6.9 65 3.1 WSW 17 28 9 15 1017.8 - 1.0
19/04:00pm 13.4 9.1 7.2 66 3.0 WSW 19 30 10 16 1018.0 - 1.0
19/03:30pm 13.0 9.6 9.1 77 2.0 SSW 17 26 9 14 1018.1 - 1.0
19/03:00pm 13.6 10.0 8.4 71 2.6 SSW 17 24 9 13 1018.2 1018.2 1.0
19/02:30pm 14.0 9.8 8.4 69 2.8 SW 20 28 11 15 1018.2 - 1.0
19/02:00pm 12.8 7.4 7.9 72 2.4 W 26 33 14 18 1018.4 - 1.0
19/01:41pm 11.4 8.8 9.5 88 1.0 WNW 13 19 7 10 1018.6 - 1.0
19/01:30pm 11.6 7.8 9.7 88 1.0 W 20 30 11 16 1018.8 - 0.8
19/01:26pm 11.9 7.7 9.8 87 1.1 W 22 33 12 18 1018.9 - 0.8
19/01:00pm 13.4 8.6 8.9 74 2.3 WNW 24 32 13 17 1018.9 - 0.8
19/12:30pm 13.3 8.8 8.6 73 2.4 W 22 30 12 16 1019.3 - 0.8
19/12:00pm 12.6 8.4 9.6 82 1.5 WNW 22 28 12 15 1019.7 1019.7 0.6
19/11:36am 11.5 7.1 10.4 93 0.6 W 24 33 13 18 1020.1 - 0.6
19/11:30am 11.5 6.7 10.2 92 0.7 W 26 33 14 18 1020.1 - 0.6
19/11:19am 11.8 6.6 10.2 90 0.8 W 28 39 15 21 1020.2 - 0.4
19/11:00am 14.1 9.7 6.7 61 3.6 WSW 19 30 10 16 1019.9 - 0.0
19/10:30am 13.9 9.6 7.0 63 3.4 SW 19 28 10 15 1019.9 - 0.0
19/10:00am 14.0 9.2 7.3 64 3.3 SSW 22 30 12 16 1020.0 - 0.0
19/09:30am 13.3 7.5 6.2 62 3.4 SW 26 32 14 17 1020.0 - 0.0
19/09:00am 12.0 8.2 9.0 82 1.5 S 19 26 10 14 1019.9 1019.9 0.4
19/08:30am 13.0 8.9 6.1 63 3.3 SW 17 28 9 15 1019.6 - 0.4
19/08:00am 11.3 9.2 8.2 81 1.5 S 9 15 5 8 1019.5 - 0.4
19/07:30am 11.6 7.9 8.1 79 1.7 S 17 30 9 16 1019.2 - 0.4
19/07:00am 11.7 7.5 7.6 76 2.0 SSW 19 28 10 15 1018.9 - 0.4
19/06:30am 11.4 8.0 7.7 78 1.8 S 15 26 8 14 1018.7 - 0.4
19/06:00am 11.8 6.8 6.5 70 2.5 SW 22 30 12 16 1018.7 1018.7 0.4
19/05:30am 11.4 7.8 6.9 74 2.1 SW 15 22 8 12 1018.6 - 0.4
19/05:00am 10.9 6.4 8.7 86 1.1 WSW 22 33 12 18 1018.6 - 0.4
19/04:30am 11.6 7.8 9.0 84 1.3 WSW 19 33 10 18 1018.6 - 0.4
19/04:00am 10.1 7.6 6.6 79 1.6 SW 9 11 5 6 1018.5 - 0.2
19/03:30am 10.9 4.2 7.2 78 1.8 SSW 32 43 17 23 1018.7 - 0.2
19/03:24am 10.9 4.1 7.6 80 1.6 SSW 33 43 18 23 1018.7 - 0.2
19/03:00am 11.1 8.2 8.1 82 1.5 SW 13 17 7 9 1018.8 1018.8 0.2
19/02:30am 10.8 5.5 8.4 85 1.2 SW 26 35 14 19 1019.3 - 0.2
19/02:08am 12.0 6.6 9.6 85 1.2 WSW 28 46 15 25 1019.1 - 0.2
19/02:00am 12.5 7.9 8.0 74 2.2 WSW 22 30 12 16 1019.0 - 0.2
19/01:30am 12.4 8.1 6.9 69 2.6 SW 19 26 10 14 1019.1 - 0.2
19/01:00am 11.7 6.0 6.6 71 2.4 SSW 26 32 14 17 1019.1 - 0.2
19/12:30am 11.0 7.4 8.2 83 1.4 SSW 17 24 9 13 1019.3 - 0.2
19/12:00am 11.6 7.3 7.7 77 1.9 SSW 20 32 11 17 1019.2 1019.2 0.2
 
Date/Time
EST
Temp
°C
App
Temp
°C
Dew
Point
Rel
Hum
%
Delta-T
°C
Wind Press
QNH
hPa
Press
MSL
hPa
Rain
since 9 am
mm
Dir
 
Spd
km/h
Gust
km/h
Spd
kts
Gust
kts
18/11:30pm 12.1 5.9 7.8 75 2.1 SSW 30 37 16 20 1019.3 - 0.2
18/11:24pm 12.1 6.2 7.6 74 2.2 SW 28 48 15 26 1019.2 - 0.2
18/11:00pm 13.0 8.4 6.4 64 3.2 SW 20 30 11 16 1019.2 - 0.2
18/10:30pm 12.6 6.6 5.5 62 3.3 SW 26 35 14 19 1019.3 - 0.2
18/10:00pm 12.9 6.6 5.8 62 3.3 SW 28 37 15 20 1019.2 - 0.2
18/09:30pm 13.0 6.9 6.4 64 3.2 SW 28 39 15 21 1019.2 - 0.2
18/09:00pm 12.8 6.3 6.6 66 3.0 SW 30 37 16 20 1019.0 1019.0 0.2
18/08:30pm 13.0 7.0 7.2 68 2.8 SW 28 37 15 20 1018.7 - 0.2
18/08:00pm 13.3 6.7 7.7 69 2.8 SW 32 41 17 22 1018.5 - 0.2
18/07:30pm 13.2 6.4 4.9 57 3.8 SW 30 41 16 22 1018.4 - 0.2
18/07:00pm 13.1 6.1 6.0 62 3.4 SW 32 39 17 21 1018.2 - 0.2
18/06:30pm 13.6 7.8 6.2 61 3.5 SW 26 39 14 21 1017.9 - 0.2
18/06:00pm 13.0 5.9 6.6 65 3.1 SW 33 44 18 24 1017.8 1017.8 0.2
18/05:30pm 13.4 6.7 7.2 66 3.0 SW 32 43 17 23 1017.5 - 0.2
18/05:00pm 13.5 6.2 7.3 66 3.0 SW 35 50 19 27 1017.1 - 0.2
18/04:30pm 13.7 6.3 6.6 62 3.4 SW 35 54 19 29 1017.0 - 0.2
18/04:00pm 14.7 7.7 7.0 60 3.8 WSW 33 50 18 27 1016.5 - 0.2
18/03:31pm 15.3 7.4 6.3 55 4.4 SW 37 56 20 30 1016.3 - 0.2
18/03:30pm 15.3 7.2 6.8 57 4.2 SW 39 56 21 30 1016.3 - 0.2
18/03:00pm 14.7 6.4 6.3 57 4.0 SW 39 56 21 30 1016.0 1016.1 0.2
18/02:53pm 14.8 7.9 7.4 61 3.7 SW 33 52 18 28 1015.9 - 0.2
18/02:30pm 14.9 6.9 7.5 61 3.7 SW 39 54 21 29 1015.8 - 0.2
18/02:09pm 14.5 6.8 7.1 61 3.6 SW 37 56 20 30 1015.6 - 0.2
18/02:00pm 15.3 6.7 8.3 63 3.5 SSW 43 54 23 29 1015.6 - 0.2
18/01:33pm 16.5 8.8 8.5 59 4.1 SW 39 57 21 31 1015.4 - 0.2
18/01:30pm 17.0 9.0 7.6 54 4.7 SW 39 52 21 28 1015.3 - 0.2
18/01:01pm 16.4 8.9 6.5 52 4.9 WSW 35 54 19 29 1015.3 - 0.2
18/01:00pm 16.5 9.2 7.2 54 4.6 WSW 35 50 19 27 1015.3 - 0.2
18/12:30pm 16.1 8.4 7.1 55 4.5 SW 37 52 20 28 1015.3 - 0.2
18/12:00pm 15.7 7.8 7.7 59 4.0 WSW 39 56 21 30 1015.1 1015.1 0.2
18/11:30am 15.8 8.0 6.5 54 4.5 SW 37 56 20 30 1015.0 - 0.2
18/11:01am 15.8 8.6 7.8 59 4.0 SW 35 56 19 30 1015.0 - 0.2
18/11:00am 15.8 8.7 8.1 60 3.9 SW 35 48 19 26 1014.9 - 0.2
18/10:30am 15.2 7.9 8.7 65 3.3 WSW 37 50 20 27 1014.7 - 0.0
18/10:02am 15.1 8.2 7.4 60 3.8 SW 33 52 18 28 1014.1 - 0.0
18/10:00am 15.2 8.7 8.9 66 3.2 SW 33 48 18 26 1014.1 - 0.0
18/09:30am 13.6 7.5 9.6 77 2.1 SW 32 39 17 21 1014.1 - 0.0
18/09:00am 12.8 6.2 10.0 83 1.4 SW 35 50 19 27 1013.6 1013.6 3.8
18/08:41am 12.2 6.1 9.8 85 1.2 SW 32 50 17 27 1014.0 - 3.8
18/08:30am 12.2 6.1 10.3 88 1.0 SW 33 44 18 24 1014.0 - 3.8
18/08:13am 12.0 5.7 10.9 93 0.6 SW 35 48 19 26 1013.7 - 3.6
18/08:03am 12.4 5.8 11.5 94 0.5 SW 37 54 20 29 1013.2 - 3.6
18/08:00am 12.2 5.6 11.3 94 0.5 SW 37 54 20 29 1013.2 - 3.2
18/07:52am 12.4 5.9 11.6 95 0.4 SW 37 52 20 28 1013.0 - 2.4
18/07:37am 13.0 6.7 12.2 95 0.4 SW 37 59 20 32 1012.6 - 2.4
18/07:34am 13.1 7.2 12.3 95 0.4 SW 35 59 19 32 1012.6 - 2.2
18/07:30am 13.2 7.3 12.4 95 0.4 WSW 35 50 19 27 1012.5 - 2.0
18/07:16am 13.2 7.8 12.3 94 0.5 WSW 32 46 17 25 1012.4 - 1.2
18/07:11am 13.4 7.8 12.0 91 0.8 SW 33 46 18 25 1012.4 - 0.6
18/07:07am 14.5 8.0 13.0 91 0.8 W 39 46 21 25 1012.4 - 0.6
18/07:04am 15.4 10.7 14.3 93 0.6 NW 32 39 17 21 1011.5 - 0.6
18/07:00am 15.3 10.6 14.3 94 0.6 NW 32 41 17 22 1011.5 - 0.6
18/06:53am 15.2 10.2 14.1 93 0.6 NW 33 43 18 23 1011.5 - 0.6
18/06:30am 15.2 10.3 14.2 94 0.6 NW 33 39 18 21 1011.7 - 0.6
18/06:26am 15.1 10.1 14.1 94 0.6 NW 33 41 18 22 1011.7 - 0.6
18/06:07am 14.8 8.9 13.7 93 0.6 NW 37 46 20 25 1011.9 - 0.4
18/06:06am 14.8 8.9 13.7 93 0.6 NW 37 46 20 25 1011.9 - 0.4
18/06:00am 15.0 9.4 13.4 90 0.9 NW 35 44 19 24 1011.9 1011.9 0.4
18/05:30am 15.1 10.0 13.1 88 1.1 NW 32 37 17 20 1012.2 - 0.4
18/05:00am 14.7 10.4 13.2 91 0.8 NW 28 35 15 19 1012.4 - 0.4
18/04:53am 14.4 10.0 13.0 91 0.8 NW 28 32 15 17 1012.4 - 0.4
18/04:30am 14.2 7.9 12.4 89 1.0 NW 37 48 20 26 1012.9 - 0.0
18/04:29am 14.5 8.7 12.7 89 1.0 NW 35 48 19 26 1013.0 - 0.0
18/04:00am 15.6 10.4 12.7 83 1.6 NNW 32 39 17 21 1013.0 - 0.0
18/03:30am 15.3 10.7 12.4 83 1.6 NNW 28 35 15 19 1013.1 - 0.0
18/03:00am 15.3 10.6 12.1 81 1.7 NNW 28 35 15 19 1013.4 1013.4 0.0
18/02:30am 15.2 11.3 12.1 82 1.7 NNW 24 30 13 16 1014.0 - 0.0
18/02:00am 15.1 10.7 11.7 80 1.8 NNW 26 33 14 18 1014.2 - 0.0
18/01:30am 15.0 10.3 12.0 82 1.6 NW 28 35 15 19 1014.8 - 0.0
18/01:00am 15.2 10.9 12.1 82 1.7 NNW 26 33 14 18 1015.1 - 0.0
18/12:30am 15.7 12.7 12.6 82 1.7 NW 20 26 11 14 1015.3 - 0.0
18/12:00am 15.7 12.0 12.6 82 1.7 NNW 24 30 13 16 1015.9 1016.0 0.0
 
Date/Time
EST
Temp
°C
App
Temp
°C
Dew
Point
Rel
Hum
%
Delta-T
°C
Wind Press
QNH
hPa
Press
MSL
hPa
Rain
since 9 am
mm
Dir
 
Spd
km/h
Gust
km/h
Spd
kts
Gust
kts
17/11:30pm 15.1 11.9 13.1 88 1.1 NNW 22 28 12 15 1016.2 - 0.0
17/11:00pm 12.1 12.3 11.9 99 0.1 NNE 2 9 1 5 1016.7 - 0.0
17/10:59pm 12.0 12.2 11.8 99 0.1 NNE 2 9 1 5 1016.7 - 0.0
17/10:30pm 11.3 10.3 11.0 98 0.2 NE 7 9 4 5 1017.0 - 0.0
17/10:00pm 12.0 11.8 11.7 98 0.2 NNE 4 9 2 5 1017.3 - 0.0
17/09:48pm 12.1 11.5 11.6 97 0.3 NNE 6 7 3 4 1017.3 - 0.0
17/09:30pm 12.6 13.3 12.1 97 0.3 CALM 0 0 0 0 1017.2 - 0.0
17/09:00pm 12.9 12.3 12.3 96 0.3 NE 7 7 4 4 1017.4 1017.4 0.0
17/08:56pm 12.8 12.1 12.0 95 0.4 NE 7 7 4 4 1017.3 - 0.0
17/08:34pm 13.9 14.8 12.8 93 0.6 CALM 0 0 0 0 1017.4 - 0.0
17/08:30pm 13.8 14.3 12.7 93 0.6 N 2 6 1 3 1017.4 - 0.0
17/08:00pm 14.6 13.9 13.1 91 0.8 N 9 9 5 5 1017.5 - 0.0
17/07:30pm 15.1 13.7 13.5 90 0.9 NW 13 15 7 8 1017.7 - 0.0
17/07:24pm 15.4 14.1 13.8 90 0.9 NW 13 17 7 9 1017.6 - 0.0
17/07:03pm 15.5 14.3 13.9 90 0.9 NW 13 15 7 8 1017.8 - 0.0
17/07:00pm 15.5 14.3 13.9 90 0.9 NW 13 17 7 9 1017.8 - 0.0
17/06:53pm 15.6 14.3 13.8 89 1.0 NW 13 17 7 9 1017.6 - 0.0
17/06:30pm 16.6 15.2 14.4 87 1.3 NW 15 19 8 10 1017.7 - 0.0
17/06:23pm 16.6 14.7 14.2 86 1.4 NW 17 20 9 11 1017.8 - 0.0
17/06:00pm 16.8 15.8 13.5 81 1.9 NNW 11 15 6 8 1017.8 1017.8 0.0
17/05:30pm 16.7 14.7 12.7 77 2.2 NNW 15 19 8 10 1018.0 - 0.0
17/05:00pm 16.8 14.9 13.1 79 2.1 NW 15 19 8 10 1018.0 - 0.0
17/04:30pm 17.1 14.8 13.0 77 2.3 NW 17 20 9 11 1018.1 - 0.0
17/04:00pm 17.3 14.3 12.6 74 2.6 NNW 20 26 11 14 1018.3 - 0.0
17/03:30pm 17.8 14.6 11.8 68 3.3 NNW 20 28 11 15 1018.3 - 0.0
17/03:00pm 19.0 15.9 12.3 65 3.7 NNW 20 26 11 14 1018.4 1018.4 0.0
17/02:30pm 18.6 14.5 11.4 63 3.9 NW 24 32 13 17 1018.6 - 0.0
17/02:00pm 18.5 15.1 12.5 68 3.3 NNW 22 30 12 16 1018.6 - 0.0
17/01:30pm 18.3 15.3 12.1 67 3.4 NW 19 28 10 15 1018.7 - 0.0
17/01:00pm 18.2 15.6 13.1 72 2.9 NNW 19 26 10 14 1019.1 - 0.0
17/12:30pm 18.1 15.9 13.4 74 2.7 NNW 17 26 9 14 1019.5 - 0.0
17/12:00pm 18.6 16.6 12.6 68 3.3 NNW 15 22 8 12 1019.7 1019.7 0.0
17/11:30am 18.2 15.8 12.6 70 3.1 N 17 26 9 14 1019.9 - 0.0
17/11:00am 17.5 15.3 13.2 76 2.4 NNW 17 24 9 13 1020.1 - 0.0
17/10:30am 17.5 15.1 12.8 74 2.6 N 17 26 9 14 1020.2 - 0.0
17/10:00am 17.2 15.3 12.9 76 2.4 N 15 19 8 10 1020.3 - 0.0
17/09:30am 16.5 15.2 12.5 77 2.2 N 11 15 6 8 1020.2 - 0.0
17/09:00am 15.0 15.7 14.4 96 0.3 NE 4 7 2 4 1020.3 1020.3 0.0
17/08:30am 13.4 13.1 13.4 100 0.0 ESE 7 9 4 5 1020.1 - 0.0
17/08:00am 11.4 10.5 11.4 100 0.0 ESE 7 9 4 5 1019.9 - 0.0
17/07:55am 11.0 10.0 11.0 100 0.0 ESE 7 9 4 5 1019.9 - 0.0
17/07:30am 10.7 9.6 10.7 100 0.0 SE 7 9 4 5 1019.8 - 0.0
17/07:23am 10.5 9.0 10.5 100 0.0 ESE 9 9 5 5 1019.8 - 0.0
17/07:00am 10.2 8.6 10.2 100 0.0 ESE 9 9 5 5 1019.5 - 0.0
17/06:30am 9.7 8.3 9.7 100 0.0 ESE 7 7 4 4 1019.5 - 0.0
17/06:27am 10.2 9.0 10.2 100 0.0 ESE 7 9 4 5 1019.5 - 0.0
17/06:07am 10.3 8.7 10.3 100 0.0 SE 9 9 5 5 1019.4 - 0.0
17/06:00am 9.4 7.6 9.4 100 0.0 ESE 9 9 5 5 1019.3 1019.3 0.0
17/05:51am 8.9 7.3 8.8 99 0.0 ESE 7 9 4 5 1019.3 - 0.0
17/05:50am 9.2 7.7 9.1 99 0.0 ESE 7 9 4 5 1019.3 - 0.0
17/05:48am 10.2 9.0 10.2 100 0.0 ESE 7 9 4 5 1019.3 - 0.0
17/05:30am 11.0 9.6 11.0 100 0.0 ESE 9 9 5 5 1019.2 - 0.0
17/05:25am 10.9 9.5 10.9 100 0.0 ESE 9 9 5 5 1019.2 - 0.0
17/05:10am 11.0 9.9 10.8 99 0.1 ESE 7 9 4 5 1019.2 - 0.0

Other Formats:

Comma delimited format used in spreadsheet applications
http://www.bom.gov.au/fwo/IDT60801/IDT60801.94850.axf

JavaScript Object Notation format (JSON) in row-major order
http://www.bom.gov.au/fwo/IDT60801/IDT60801.94850.json